Terminal Aerodrome Forecast
Issued by NWS

Current Version | Previous Version | Text Only | Print | Product List | Glossary On
Versions: 1 2 3 4 5 6 7 8 9 10 11 12 13
000
FTUS44 KEPZ 270500
TAFDMN
TAF
KDMN 270537Z 2706/2806 07010KT P6SM FEW025 BKN150
     FM272100 17008KT P6SM SCT150
     FM280300 09006KT P6SM BKN150=

USA.gov is the U.S. government's official web portal to all federal, state and local government web resources and services.